Time;durP1;ratioP1;P1;durP2;ratioP2;P2;SDS_P1;SDS_P2;PMS_P1;PMS_P2;Temp;Humidity;BMP_temperature;BMP_pressure;BME280_temperature;BME280_humidity;BME280_pressure;Samples;Min_cycle;Max_cycle;Signal;HPM_P1;HPM_P2
2023/10/04 00:00:19;;;;;;;11.50;2.22;;;11.90;99.90;;;;;;4872390;29;20108;-83
2023/10/04 00:02:54;;;;;;;13.27;1.95;;;11.90;99.90;;;;;;4873489;29;20044;-86
2023/10/04 00:05:22;;;;;;;13.05;2.08;;;11.90;99.90;;;;;;4873626;29;20038;-85
2023/10/04 00:07:50;;;;;;;10.43;2.17;;;11.80;99.90;;;;;;4859781;29;20105;-86
2023/10/04 00:10:17;;;;;;;6.10;1.85;;;11.80;99.90;;;;;;4853594;29;20045;-84
2023/10/04 00:12:44;;;;;;;9.68;2.20;;;11.80;99.90;;;;;;4854361;29;20555;-86
2023/10/04 00:15:13;;;;;;;11.75;2.20;;;11.70;99.90;;;;;;4853215;29;20049;-86
2023/10/04 00:17:41;;;;;;;12.75;2.30;;;11.70;99.90;;;;;;4867218;29;20478;-88
2023/10/04 00:20:17;;;;;;;10.77;2.25;;;11.70;99.90;;;;;;4873342;29;20036;-85
2023/10/04 00:22:44;;;;;;;15.40;2.20;;;11.70;99.90;;;;;;4873391;29;20536;-84
2023/10/04 00:25:16;;;;;;;8.27;1.77;;;11.70;99.90;;;;;;4871199;29;20037;-84
2023/10/04 00:27:43;;;;;;;12.73;1.95;;;11.70;99.90;;;;;;4864093;29;20034;-87
2023/10/04 00:30:12;;;;;;;9.60;1.85;;;11.60;99.90;;;;;;4854201;29;20038;-83
2023/10/04 00:32:38;;;;;;;8.55;2.13;;;11.60;99.90;;;;;;4854033;29;20144;-83
2023/10/04 00:35:09;;;;;;;11.15;2.10;;;11.60;99.90;;;;;;4853083;29;20124;-86
2023/10/04 00:37:35;;;;;;;11.60;2.15;;;11.60;99.90;;;;;;4854913;29;20104;-85
2023/10/04 00:40:01;;;;;;;9.32;1.75;;;11.60;99.90;;;;;;4853723;29;20030;-82
2023/10/04 00:42:26;;;;;;;11.45;2.00;;;11.60;99.90;;;;;;4852282;29;20109;-84
2023/10/04 00:44:52;;;;;;;12.43;1.90;;;11.50;99.90;;;;;;4851761;29;20698;-84
2023/10/04 00:47:18;;;;;;;6.63;1.58;;;11.50;99.90;;;;;;4854768;29;20044;-86
2023/10/04 00:49:48;;;;;;;8.88;1.92;;;11.50;99.90;;;;;;4854247;29;20038;-87
2023/10/04 00:52:14;;;;;;;10.48;2.13;;;11.60;99.90;;;;;;4854046;29;20140;-84
2023/10/04 00:54:40;;;;;;;8.25;1.90;;;11.50;99.90;;;;;;4854027;29;20029;-85
2023/10/04 00:57:10;;;;;;;10.82;2.03;;;11.50;99.90;;;;;;4860841;29;20033;-86
2023/10/04 00:59:36;;;;;;;12.07;2.20;;;11.50;99.90;;;;;;4872581;29;20506;-86
2023/10/04 01:02:01;;;;;;;12.27;2.13;;;11.50;99.90;;;;;;4872187;29;20115;-85
2023/10/04 01:04:27;;;;;;;9.90;1.90;;;11.50;99.90;;;;;;4858225;29;20048;-85
2023/10/04 01:06:54;;;;;;;15.70;2.30;;;11.40;99.90;;;;;;4870299;29;20033;-82
2023/10/04 01:09:23;;;;;;;13.13;2.10;;;11.40;99.90;;;;;;4871695;29;20041;-83
2023/10/04 01:11:48;;;;;;;17.52;2.25;;;11.40;99.90;;;;;;4871891;29;20048;-83
2023/10/04 01:14:25;;;;;;;9.90;2.00;;;11.40;99.90;;;;;;4871198;29;20029;-87
2023/10/04 01:16:54;;;;;;;10.63;1.80;;;11.30;99.90;;;;;;4870611;29;20085;-87
2023/10/04 01:19:22;;;;;;;10.38;2.10;;;11.30;99.90;;;;;;4868166;29;20666;-86
2023/10/04 01:21:49;;;;;;;9.85;2.15;;;11.30;99.90;;;;;;4872078;29;20085;-88
2023/10/04 01:24:16;;;;;;;9.40;1.80;;;11.30;99.90;;;;;;4872658;29;20056;-84
2023/10/04 01:26:42;;;;;;;10.35;2.05;;;11.30;99.90;;;;;;4872533;29;20036;-86
2023/10/04 01:29:11;;;;;;;10.25;1.92;;;11.30;99.90;;;;;;4871098;29;20396;-86
2023/10/04 01:31:40;;;;;;;11.85;2.05;;;11.30;99.90;;;;;;4872080;29;20025;-85
2023/10/04 01:34:06;;;;;;;9.82;1.92;;;11.30;99.90;;;;;;4867847;29;20040;-86
2023/10/04 01:36:36;;;;;;;8.75;2.10;;;11.30;99.90;;;;;;4871996;29;20040;-83
2023/10/04 01:39:07;;;;;;;10.70;2.00;;;11.20;99.90;;;;;;4871842;29;20033;-85
2023/10/04 01:41:37;;;;;;;9.73;1.77;;;11.20;99.90;;;;;;4867197;29;20049;-85
2023/10/04 01:44:04;;;;;;;8.98;2.10;;;11.20;99.90;;;;;;4851990;29;20554;-86
2023/10/04 01:46:29;;;;;;;8.98;1.58;;;11.20;99.90;;;;;;4852406;29;20520;-89
2023/10/04 01:48:56;;;;;;;9.27;1.67;;;11.10;99.90;;;;;;4853747;29;20108;-86
2023/10/04 01:51:22;;;;;;;7.47;1.70;;;11.10;99.90;;;;;;4853751;29;20052;-86
2023/10/04 01:53:48;;;;;;;14.45;1.95;;;11.00;99.90;;;;;;4853417;29;20908;-86
2023/10/04 01:56:13;;;;;;;9.27;1.90;;;10.90;99.90;;;;;;4860851;29;20041;-87
2023/10/04 01:58:40;;;;;;;10.88;1.77;;;11.00;99.90;;;;;;4853199;29;20037;-86
2023/10/04 02:01:06;;;;;;;9.60;2.20;;;10.90;99.90;;;;;;4852647;29;20452;-85
2023/10/04 02:03:32;;;;;;;10.48;1.88;;;10.90;99.90;;;;;;4856249;29;20028;-87
2023/10/04 02:05:57;;;;;;;6.55;1.65;;;10.90;99.90;;;;;;4871734;29;20719;-88
2023/10/04 02:08:23;;;;;;;6.50;1.92;;;10.90;99.90;;;;;;4871549;29;20037;-88
2023/10/04 02:10:50;;;;;;;12.25;1.90;;;10.80;99.90;;;;;;4872057;29;20244;-87
2023/10/04 02:13:17;;;;;;;11.60;1.90;;;10.80;99.90;;;;;;4871653;29;20120;-87
2023/10/04 02:15:50;;;;;;;10.65;1.80;;;10.70;99.90;;;;;;4871823;29;20452;-88
2023/10/04 02:18:18;;;;;;;6.60;1.60;;;10.70;99.90;;;;;;4872120;29;20037;-88
2023/10/04 02:20:48;;;;;;;8.10;1.55;;;10.60;99.90;;;;;;4870793;29;20089;-88
2023/10/04 02:23:15;;;;;;;8.63;2.33;;;10.60;99.90;;;;;;4856140;29;20030;-88
2023/10/04 02:25:41;;;;;;;12.20;2.30;;;10.60;99.90;;;;;;4856723;29;20044;-87
2023/10/04 02:28:11;;;;;;;9.88;1.90;;;10.50;99.90;;;;;;4857188;29;20121;-88
2023/10/04 02:30:38;;;;;;;14.77;2.00;;;10.50;99.90;;;;;;4856436;29;20037;-86
2023/10/04 02:33:13;;;;;;;9.60;1.65;;;10.60;99.90;;;;;;4869239;29;20064;-87
2023/10/04 02:35:44;;;;;;;12.63;1.80;;;10.60;99.90;;;;;;4873420;29;20834;-87
2023/10/04 02:38:16;;;;;;;9.43;1.60;;;10.60;99.90;;;;;;4875045;29;20550;-85
2023/10/04 02:40:43;;;;;;;9.55;1.60;;;10.60;99.90;;;;;;4875611;29;20136;-86
2023/10/04 02:43:09;;;;;;;8.48;1.65;;;10.60;99.90;;;;;;4861727;29;20120;-89
2023/10/04 02:45:36;;;;;;;9.48;1.60;;;10.50;99.90;;;;;;4856848;29;20032;-86
2023/10/04 02:48:04;;;;;;;11.65;1.40;;;10.50;99.90;;;;;;4857115;29;20044;-86
2023/10/04 02:50:29;;;;;;;11.35;1.67;;;10.50;99.90;;;;;;4856327;29;20045;-86
2023/10/04 02:52:56;;;;;;;7.95;1.55;;;10.50;99.90;;;;;;4855389;29;20080;-87
2023/10/04 02:55:22;;;;;;;14.80;1.60;;;10.50;99.90;;;;;;4861997;29;20032;-86
2023/10/04 02:57:52;;;;;;;6.45;1.42;;;10.60;99.90;;;;;;4875296;29;20037;-86
2023/10/04 03:00:20;;;;;;;11.10;1.57;;;10.50;99.90;;;;;;4873087;29;20052;-85
2023/10/04 03:02:47;;;;;;;12.77;1.80;;;10.50;99.90;;;;;;4872663;29;20037;-86
2023/10/04 03:05:15;;;;;;;13.15;1.95;;;10.50;99.90;;;;;;4872534;29;20414;-86
2023/10/04 03:07:41;;;;;;;7.85;1.63;;;10.50;99.90;;;;;;4873269;29;20036;-87
2023/10/04 03:10:10;;;;;;;10.85;1.88;;;10.50;99.90;;;;;;4874842;29;20036;-86
2023/10/04 03:12:37;;;;;;;14.52;1.65;;;10.50;99.90;;;;;;4873328;29;20111;-86
2023/10/04 03:15:03;;;;;;;12.63;1.58;;;10.60;99.90;;;;;;4873521;29;20036;-84
2023/10/04 03:17:29;;;;;;;12.30;1.73;;;10.60;99.90;;;;;;4874893;29;20108;-86
2023/10/04 03:19:55;;;;;;;8.05;1.60;;;10.60;99.90;;;;;;4874058;29;20128;-86
2023/10/04 03:22:22;;;;;;;11.43;1.80;;;10.60;99.90;;;;;;4872760;29;20456;-84
2023/10/04 03:24:49;;;;;;;9.02;1.58;;;10.60;99.90;;;;;;4874033;29;20060;-87
2023/10/04 03:27:15;;;;;;;7.93;1.73;;;10.70;99.90;;;;;;4873990;29;20033;-85
2023/10/04 03:29:41;;;;;;;8.13;1.63;;;10.60;99.90;;;;;;4874683;29;20041;-87
2023/10/04 03:32:06;;;;;;;9.40;1.90;;;10.70;99.90;;;;;;4870002;29;20052;-86
2023/10/04 03:34:32;;;;;;;7.78;1.80;;;10.70;99.90;;;;;;4854407;29;20037;-86
2023/10/04 03:37:08;;;;;;;11.85;1.77;;;10.70;99.90;;;;;;4856088;29;20037;-85
2023/10/04 03:39:35;;;;;;;8.20;1.52;;;10.70;99.90;;;;;;4854635;29;20178;-87
2023/10/04 03:42:01;;;;;;;11.07;1.63;;;10.80;99.90;;;;;;4856118;29;20144;-86
2023/10/04 03:44:27;;;;;;;10.93;2.10;;;10.80;99.90;;;;;;4856582;29;20049;-87
2023/10/04 03:46:53;;;;;;;12.10;1.73;;;10.80;99.90;;;;;;4856333;29;20041;-86
2023/10/04 03:49:21;;;;;;;9.35;1.70;;;10.90;99.90;;;;;;4854621;29;20045;-85
2023/10/04 03:51:50;;;;;;;8.38;1.42;;;10.80;99.90;;;;;;4857098;29;20067;-84
2023/10/04 03:54:15;;;;;;;10.32;1.50;;;10.80;99.90;;;;;;4873958;29;20032;-88
2023/10/04 03:56:41;;;;;;;12.88;1.80;;;10.80;99.90;;;;;;4870229;29;20357;-87
2023/10/04 03:59:08;;;;;;;12.68;2.13;;;10.80;99.90;;;;;;4857198;29;20040;-88
2023/10/04 04:01:34;;;;;;;13.05;1.88;;;10.80;99.90;;;;;;4855532;29;20048;-88
2023/10/04 04:04:03;;;;;;;7.15;1.40;;;10.80;99.90;;;;;;4875220;29;20045;-88
2023/10/04 04:06:29;;;;;;;7.10;1.33;;;10.80;99.90;;;;;;4875324;29;20051;-88
2023/10/04 04:08:56;;;;;;;9.32;1.70;;;10.80;99.90;;;;;;4875701;29;20661;-88
2023/10/04 04:11:22;;;;;;;9.15;1.35;;;10.70;99.90;;;;;;4874059;29;20037;-88
2023/10/04 04:13:48;;;;;;;11.20;1.67;;;10.70;99.90;;;;;;4873141;29;20370;-88
2023/10/04 04:16:16;;;;;;;9.30;1.52;;;10.70;99.90;;;;;;4874781;29;20108;-87
2023/10/04 04:18:42;;;;;;;10.55;1.58;;;10.70;99.90;;;;;;4873326;29;20047;-86
2023/10/04 04:21:07;;;;;;;11.10;2.35;;;10.70;99.90;;;;;;4864747;29;20033;-87
2023/10/04 04:23:34;;;;;;;9.75;1.73;;;10.70;99.90;;;;;;4874228;29;20081;-87
2023/10/04 04:26:05;;;;;;;11.60;1.98;;;10.80;99.90;;;;;;4874371;29;20033;-87
2023/10/04 04:28:34;;;;;;;14.32;1.60;;;10.70;99.90;;;;;;4874335;29;20065;-87
2023/10/04 04:31:00;;;;;;;9.73;1.70;;;10.70;99.90;;;;;;4872661;29;20085;-88
2023/10/04 04:33:29;;;;;;;11.73;2.28;;;10.80;99.90;;;;;;4870327;29;20072;-86
2023/10/04 04:36:01;;;;;;;7.68;1.20;;;10.80;99.90;;;;;;4873955;29;20033;-88
2023/10/04 04:38:28;;;;;;;8.95;1.60;;;10.80;99.90;;;;;;4875518;29;20032;-90
2023/10/04 04:40:57;;;;;;;11.70;1.75;;;10.80;99.90;;;;;;4875014;29;20044;-88
2023/10/04 04:43:37;;;;;;;11.25;1.70;;;10.80;99.90;;;;;;4874985;29;20033;-89
2023/10/04 04:46:12;;;;;;;12.27;1.80;;;10.90;99.90;;;;;;4876036;29;20029;-89
2023/10/04 04:48:39;;;;;;;12.30;1.95;;;10.90;99.90;;;;;;4876524;29;20033;-92
2023/10/04 04:51:12;;;;;;;10.23;2.03;;;10.90;99.90;;;;;;4875201;29;20656;-89
2023/10/04 04:53:42;;;;;;;10.93;1.40;;;10.90;99.90;;;;;;4874151;29;20044;-88
2023/10/04 04:56:15;;;;;;;11.70;1.77;;;10.90;99.90;;;;;;4873732;29;20029;-88
2023/10/04 04:58:56;;;;;;;10.02;1.85;;;10.90;99.90;;;;;;4873961;29;20563;-88
2023/10/04 05:01:21;;;;;;;10.80;1.90;;;10.90;99.90;;;;;;4871971;29;20444;-87
2023/10/04 05:03:49;;;;;;;9.25;1.92;;;10.90;99.90;;;;;;4873167;29;20037;-87
2023/10/04 05:06:25;;;;;;;14.52;1.98;;;10.90;99.90;;;;;;4872902;29;20060;-90
2023/10/04 05:08:57;;;;;;;8.77;1.83;;;10.90;99.90;;;;;;4873277;29;20084;-87
2023/10/04 05:11:26;;;;;;;8.15;1.67;;;10.90;99.90;;;;;;4873583;29;20424;-88
2023/10/04 05:13:53;;;;;;;12.32;1.65;;;10.90;99.90;;;;;;4873267;29;20080;-88
2023/10/04 05:16:19;;;;;;;8.88;1.42;;;10.90;99.90;;;;;;4855708;29;20038;-88
2023/10/04 05:18:45;;;;;;;8.57;1.60;;;10.90;99.90;;;;;;4854820;29;20037;-88
2023/10/04 05:21:10;;;;;;;10.82;1.67;;;10.90;99.90;;;;;;4853902;29;20525;-86
2023/10/04 05:23:36;;;;;;;11.70;1.67;;;10.90;99.90;;;;;;4871796;29;20032;-88
2023/10/04 05:26:03;;;;;;;7.10;1.33;;;10.80;99.90;;;;;;4872601;29;20768;-88
2023/10/04 05:28:29;;;;;;;7.82;1.50;;;10.80;99.90;;;;;;4871572;29;20105;-88
2023/10/04 05:30:55;;;;;;;6.82;1.42;;;10.80;99.90;;;;;;4873579;29;20444;-87
2023/10/04 05:33:22;;;;;;;8.77;1.70;;;10.80;99.90;;;;;;4861285;29;20037;-88
2023/10/04 05:35:53;;;;;;;8.90;1.58;;;10.70;99.90;;;;;;4854061;29;20427;-86
2023/10/04 05:38:19;;;;;;;12.40;1.67;;;10.70;99.90;;;;;;4854351;29;20956;-86
2023/10/04 05:40:49;;;;;;;6.68;1.70;;;10.60;99.90;;;;;;4854737;29;20065;-88
2023/10/04 05:43:16;;;;;;;7.15;2.00;;;10.60;99.90;;;;;;4864647;29;20041;-88
2023/10/04 05:45:42;;;;;;;6.03;1.27;;;10.50;99.90;;;;;;4873136;29;20036;-89
2023/10/04 05:48:14;;;;;;;6.32;1.55;;;10.50;99.90;;;;;;4874374;29;20033;-90
2023/10/04 05:50:39;;;;;;;5.90;1.42;;;10.40;99.90;;;;;;4873423;29;20025;-89
2023/10/04 05:53:07;;;;;;;4.97;1.33;;;10.30;99.90;;;;;;4873428;29;20075;-87
2023/10/04 05:55:34;;;;;;;8.48;1.35;;;10.30;99.90;;;;;;4868892;29;20756;-87
2023/10/04 05:58:00;;;;;;;5.85;1.60;;;10.30;99.90;;;;;;4872952;29;20038;-89
2023/10/04 06:00:27;;;;;;;8.23;1.85;;;10.30;99.90;;;;;;4858441;29;20116;-86
2023/10/04 06:02:55;;;;;;;14.77;2.58;;;10.30;99.90;;;;;;4861873;29;20056;-83
2023/10/04 06:05:22;;;;;;;13.85;1.95;;;10.30;99.90;;;;;;4875262;29;20122;-88
2023/10/04 06:07:51;;;;;;;159.02;76.93;;;10.40;99.90;;;;;;4869180;29;20100;-90
2023/10/04 06:10:18;;;;;;;107.00;44.50;;;10.50;99.90;;;;;;4858179;29;20029;-87
2023/10/04 06:12:45;;;;;;;16.25;3.65;;;10.50;99.90;;;;;;4856881;29;20518;-88
2023/10/04 06:15:13;;;;;;;13.13;3.60;;;10.50;99.90;;;;;;4857760;29;20101;-90
2023/10/04 06:17:42;;;;;;;11.85;2.88;;;10.50;99.90;;;;;;4856753;29;20215;-87
2023/10/04 06:20:25;;;;;;;14.05;4.95;;;10.50;99.90;;;;;;4857083;29;20468;-88
2023/10/04 06:22:59;;;;;;;12.50;4.88;;;10.50;99.90;;;;;;4857183;29;20120;-89
2023/10/04 06:25:28;;;;;;;11.18;2.50;;;10.50;99.90;;;;;;4860484;29;20030;-89
2023/10/04 06:27:56;;;;;;;11.15;3.00;;;10.60;99.90;;;;;;4864368;29;20037;-88
2023/10/04 06:30:24;;;;;;;9.50;3.13;;;10.70;99.90;;;;;;4869243;29;20038;-87
2023/10/04 06:32:57;;;;;;;12.60;2.00;;;10.70;99.90;;;;;;4862740;29;20487;-86
2023/10/04 06:35:24;;;;;;;11.73;2.00;;;10.80;99.90;;;;;;4860763;29;20029;-88
2023/10/04 06:37:53;;;;;;;9.02;2.00;;;10.90;99.90;;;;;;4859131;29;20045;-87
2023/10/04 06:40:20;;;;;;;12.20;2.15;;;11.00;99.90;;;;;;4873374;29;20053;-86
2023/10/04 06:42:48;;;;;;;17.02;7.20;;;11.10;99.90;;;;;;4874911;29;20079;-86
2023/10/04 06:45:15;;;;;;;13.48;3.10;;;11.30;99.90;;;;;;4870597;29;20025;-87
2023/10/04 06:47:43;;;;;;;10.48;2.42;;;11.40;99.90;;;;;;4861785;29;20034;-87
2023/10/04 06:50:13;;;;;;;10.18;1.80;;;11.60;99.90;;;;;;4869404;29;20030;-87
2023/10/04 06:52:42;;;;;;;13.35;1.85;;;11.80;99.90;;;;;;4857406;29;20057;-87
2023/10/04 06:55:10;;;;;;;9.93;1.80;;;11.80;99.90;;;;;;4876403;29;20411;-88
2023/10/04 07:00:17;;;;;;;13.38;3.13;;;12.10;99.90;;;;;;5186285;23;20060;-88
2023/10/04 07:02:53;;;;;;;9.07;1.70;;;12.20;99.90;;;;;;4890674;23;20141;-89
2023/10/04 07:05:26;;;;;;;9.55;1.17;;;12.40;99.90;;;;;;4853701;29;20041;-88
2023/10/04 07:07:56;;;;;;;8.68;1.70;;;12.50;99.90;;;;;;4855153;29;20037;-89
2023/10/04 07:10:24;;;;;;;10.50;1.50;;;12.60;99.90;;;;;;4851796;29;20029;-87
2023/10/04 07:12:55;;;;;;;10.63;1.67;;;12.80;99.90;;;;;;4855514;29;20060;-87
2023/10/04 07:15:21;;;;;;;8.97;1.43;;;12.90;99.90;;;;;;4854116;29;20128;-87
2023/10/04 07:17:47;;;;;;;10.98;1.30;;;13.00;99.90;;;;;;4855024;29;20770;-87
2023/10/04 07:20:15;;;;;;;12.38;1.92;;;13.20;99.90;;;;;;4870337;29;20033;-89
2023/10/04 07:22:58;;;;;;;10.48;1.58;;;13.40;99.90;;;;;;4848448;29;20029;-90
2023/10/04 07:25:27;;;;;;;9.15;1.50;;;13.60;99.90;;;;;;4854713;29;20042;-86
2023/10/04 07:27:54;;;;;;;11.88;1.63;;;13.70;99.90;;;;;;4871424;29;20041;-86
2023/10/04 07:30:19;;;;;;;8.88;1.35;;;14.00;99.90;;;;;;4853398;29;20026;-88
2023/10/04 07:32:46;;;;;;;11.52;1.45;;;14.10;99.90;;;;;;4860422;29;20478;-89
2023/10/04 07:35:20;;;;;;;9.07;1.38;;;14.30;99.90;;;;;;4868629;29;20041;-89
2023/10/04 07:37:46;;;;;;;5.65;1.40;;;14.40;99.90;;;;;;4846035;29;20045;-88
2023/10/04 07:40:14;;;;;;;10.85;1.35;;;14.50;99.90;;;;;;4855230;29;20041;-87
2023/10/04 07:42:41;;;;;;;7.15;1.30;;;14.60;99.90;;;;;;4870440;29;20070;-88
2023/10/04 07:45:08;;;;;;;6.57;0.95;;;14.80;99.90;;;;;;4840818;29;20079;-86
2023/10/04 07:47:38;;;;;;;11.45;2.30;;;14.90;99.90;;;;;;4850609;29;20164;-88
2023/10/04 07:50:05;;;;;;;11.20;1.55;;;15.00;99.90;;;;;;4840740;29;20030;-87
2023/10/04 07:52:31;;;;;;;8.73;1.20;;;15.10;99.90;;;;;;4849809;29;20507;-89
2023/10/04 07:54:59;;;;;;;13.65;1.70;;;15.30;99.90;;;;;;4850016;29;20040;-89
2023/10/04 07:57:26;;;;;;;7.57;1.48;;;15.40;99.90;;;;;;4844971;29;20132;-89
2023/10/04 07:59:51;;;;;;;6.97;1.20;;;15.60;99.90;;;;;;4854456;29;20106;-86
2023/10/04 08:02:17;;;;;;;8.95;1.30;;;15.70;99.90;;;;;;4863673;29;20125;-87
2023/10/04 08:04:45;;;;;;;7.13;1.60;;;15.70;99.90;;;;;;4865916;29;20034;-87
2023/10/04 08:07:12;;;;;;;8.63;1.20;;;15.90;99.90;;;;;;4847658;29;20387;-86
2023/10/04 08:09:38;;;;;;;10.68;1.48;;;16.10;99.90;;;;;;4833982;29;20030;-92
2023/10/04 08:12:07;;;;;;;14.30;1.17;;;16.50;99.90;;;;;;4844472;29;20029;-86
2023/10/04 08:14:33;;;;;;;9.25;1.40;;;16.90;99.90;;;;;;4851315;29;20756;-86
2023/10/04 08:17:00;;;;;;;8.05;1.13;;;17.40;99.90;;;;;;4842313;29;20060;-82
2023/10/04 08:19:26;;;;;;;12.95;3.90;;;17.80;99.90;;;;;;4852704;29;20037;-86
2023/10/04 08:21:52;;;;;;;11.10;1.83;;;18.10;99.90;;;;;;4849439;29;20029;-81
2023/10/04 08:24:17;;;;;;;10.43;1.80;;;18.30;99.90;;;;;;4848464;29;20093;-82
2023/10/04 08:26:43;;;;;;;7.85;1.45;;;18.60;99.90;;;;;;4846230;29;20575;-81
2023/10/04 08:29:10;;;;;;;6.07;1.17;;;18.90;99.90;;;;;;4844995;29;20034;-79
2023/10/04 08:31:36;;;;;;;5.83;1.20;;;19.30;99.90;;;;;;4848195;29;20037;-83
2023/10/04 08:34:03;;;;;;;7.07;1.30;;;19.70;99.90;;;;;;4865500;29;20549;-83
2023/10/04 08:36:29;;;;;;;6.13;1.10;;;20.00;99.90;;;;;;4865440;29;20033;-81
2023/10/04 08:38:54;;;;;;;9.60;1.38;;;20.20;99.90;;;;;;4864485;29;20502;-81
2023/10/04 08:41:20;;;;;;;6.32;1.50;;;20.70;99.90;;;;;;4849614;29;20077;-79
2023/10/04 08:43:47;;;;;;;8.48;1.13;;;21.20;99.90;;;;;;4846309;29;20044;-80
2023/10/04 08:46:17;;;;;;;5.47;1.23;;;21.50;99.90;;;;;;4847523;29;20085;-80
2023/10/04 08:48:49;;;;;;;6.53;1.25;;;21.80;99.90;;;;;;4855448;29;20463;-80
2023/10/04 08:51:33;;;;;;;8.95;1.85;;;22.00;99.90;;;;;;4847892;29;20025;-80
2023/10/04 08:54:08;;;;;;;7.60;1.30;;;21.90;99.90;;;;;;4860584;29;20049;-79
2023/10/04 08:56:44;;;;;;;6.70;1.08;;;21.70;99.90;;;;;;4831839;29;20380;-79
2023/10/04 08:59:11;;;;;;;8.20;1.50;;;21.80;99.90;;;;;;4838417;29;20033;-78
2023/10/04 09:01:39;;;;;;;6.97;1.33;;;22.10;99.90;;;;;;4848256;29;20042;-79
2023/10/04 09:04:06;;;;;;;7.43;1.67;;;22.60;99.90;;;;;;4846673;29;20396;-77
2023/10/04 09:06:32;;;;;;;6.28;1.17;;;23.00;99.90;;;;;;4840930;29;20747;-79
2023/10/04 09:08:58;;;;;;;6.80;1.20;;;23.60;99.90;;;;;;4830747;29;20042;-80
2023/10/04 09:11:23;;;;;;;6.53;1.02;;;24.30;96.70;;;;;;4844324;29;20646;-80
2023/10/04 09:13:52;;;;;;;6.95;1.23;;;25.50;94.10;;;;;;4854750;29;20048;-79
2023/10/04 09:16:28;;;;;;;12.52;1.40;;;26.90;90.70;;;;;;4847514;29;20048;-83
2023/10/04 09:19:03;;;;;;;7.88;1.40;;;28.40;82.20;;;;;;4862955;29;20037;-80
2023/10/04 09:21:30;;;;;;;7.72;1.33;;;29.80;75.40;;;;;;4862674;29;20061;-81
2023/10/04 09:24:08;;;;;;;3.92;0.90;;;30.70;66.90;;;;;;4860640;29;20033;-83
2023/10/04 09:26:34;;;;;;;5.57;1.17;;;31.60;63.70;;;;;;4841153;29;20048;-85
2023/10/04 09:29:00;;;;;;;6.07;1.27;;;32.10;58.90;;;;;;4843625;29;20141;-82
2023/10/04 09:31:26;;;;;;;6.13;1.08;;;32.60;55.10;;;;;;4836652;29;20121;-82
2023/10/04 09:33:51;;;;;;;4.68;0.98;;;32.90;55.40;;;;;;4845098;29;20456;-81
2023/10/04 09:36:33;;;;;;;5.72;1.15;;;34.30;54.80;;;;;;4847438;29;20033;-79
2023/10/04 09:39:13;;;;;;;6.43;1.38;;;34.60;47.80;;;;;;4837578;29;20441;-80
2023/10/04 09:41:42;;;;;;;7.07;1.48;;;33.70;47.20;;;;;;4849870;29;20064;-80
2023/10/04 09:44:24;;;;;;;4.53;1.20;;;32.10;49.70;;;;;;4844628;29;20102;-81
2023/10/04 09:46:56;;;;;;;5.07;1.40;;;29.90;51.10;;;;;;4845548;29;20034;-80
2023/10/04 09:49:23;;;;;;;4.78;1.10;;;28.40;53.90;;;;;;4838880;29;20606;-81
2023/10/04 09:51:50;;;;;;;5.47;1.25;;;26.60;57.30;;;;;;4847787;29;20025;-82
2023/10/04 09:54:18;;;;;;;6.80;1.60;;;25.70;62.60;;;;;;4849617;29;20037;-83
2023/10/04 09:56:49;;;;;;;6.80;1.35;;;24.80;63.90;;;;;;4837340;29;20032;-85
2023/10/04 09:59:19;;;;;;;6.47;1.33;;;24.20;66.40;;;;;;4836156;29;20116;-85
2023/10/04 10:01:59;;;;;;;6.20;1.33;;;23.90;71.60;;;;;;4837286;29;20259;-84
2023/10/04 10:04:42;;;;;;;5.50;1.20;;;23.60;79.80;;;;;;4841112;29;20068;-84
2023/10/04 10:07:15;;;;;;;5.22;1.40;;;23.60;82.90;;;;;;4843569;29;20121;-86
2023/10/04 10:09:41;;;;;;;6.40;1.05;;;24.00;85.80;;;;;;4841768;29;20052;-87
2023/10/04 10:12:08;;;;;;;6.38;1.27;;;24.90;81.60;;;;;;4840910;29;20061;-86
2023/10/04 10:14:35;;;;;;;4.20;1.00;;;26.00;73.20;;;;;;4838039;29;20483;-86
2023/10/04 10:17:01;;;;;;;8.27;1.20;;;26.40;67.60;;;;;;4835725;29;20181;-84
2023/10/04 10:19:27;;;;;;;5.28;1.15;;;26.40;68.50;;;;;;4830109;29;20654;-89
2023/10/04 10:22:03;;;;;;;8.88;1.90;;;25.90;67.90;;;;;;4841716;29;20511;-88
2023/10/04 10:24:29;;;;;;;5.88;1.20;;;25.70;71.80;;;;;;4846648;29;20097;-88
2023/10/04 10:27:07;;;;;;;3.83;1.05;;;26.10;69.20;;;;;;4847485;29;20046;-88
2023/10/04 10:29:34;;;;;;;7.10;1.40;;;26.60;71.70;;;;;;4846959;29;20940;-86
2023/10/04 10:32:01;;;;;;;6.40;1.33;;;26.90;71.60;;;;;;4847985;29;20033;-85
2023/10/04 10:34:27;;;;;;;5.40;1.27;;;27.60;70.50;;;;;;4844186;29;20048;-86
2023/10/04 10:37:14;;;;;;;3.67;1.05;;;27.40;62.90;;;;;;4845064;29;20088;-85
2023/10/04 10:39:45;;;;;;;4.70;1.10;;;26.50;63.80;;;;;;4848091;29;20124;-85
2023/10/04 10:42:12;;;;;;;6.00;1.35;;;27.20;73.00;;;;;;4848212;29;20042;-87
2023/10/04 10:44:39;;;;;;;4.03;1.00;;;28.70;72.30;;;;;;4851693;29;20033;-88
2023/10/04 10:47:31;;;;;;;4.88;1.10;;;29.90;67.60;;;;;;4851434;29;20395;-87
2023/10/04 10:50:12;;;;;;;4.03;1.08;;;30.90;59.90;;;;;;4851887;29;20041;-85
2023/10/04 10:52:39;;;;;;;4.22;0.77;;;31.70;58.20;;;;;;4847999;29;20044;-83
2023/10/04 10:55:07;;;;;;;4.60;0.98;;;31.70;56.60;;;;;;4850012;29;20491;-83
2023/10/04 10:57:36;;;;;;;5.10;0.95;;;31.50;55.20;;;;;;4851316;29;20041;-87
2023/10/04 11:00:20;;;;;;;4.28;0.90;;;31.50;58.20;;;;;;4851574;29;20037;-86
2023/10/04 11:02:53;;;;;;;3.42;0.88;;;31.30;54.90;;;;;;4850704;29;20061;-84
2023/10/04 11:05:20;;;;;;;3.55;1.30;;;30.70;57.00;;;;;;4864940;29;20030;-86
2023/10/04 11:07:47;;;;;;;3.25;1.48;;;30.40;57.40;;;;;;4847052;29;20089;-85
2023/10/04 11:10:17;;;;;;;5.65;2.72;;;30.30;59.30;;;;;;4847166;29;20228;-86
2023/10/04 11:12:45;;;;;;;7.40;2.53;;;30.00;56.80;;;;;;4836291;29;20050;-84
2023/10/04 11:15:11;;;;;;;6.65;2.28;;;29.70;57.20;;;;;;4831232;29;20843;-84
2023/10/04 11:17:37;;;;;;;5.47;1.45;;;29.20;55.20;;;;;;4848774;29;20538;-85
2023/10/04 11:20:09;;;;;;;8.45;2.10;;;28.60;58.10;;;;;;4863378;29;20039;-82
2023/10/04 11:22:37;;;;;;;6.63;2.78;;;27.90;54.20;;;;;;4844214;29;20030;-84
2023/10/04 11:25:05;;;;;;;7.00;2.85;;;27.20;57.80;;;;;;4847536;29;20041;-86
2023/10/04 11:27:32;;;;;;;4.82;1.80;;;26.90;61.70;;;;;;4846508;29;20029;-85
2023/10/04 11:29:59;;;;;;;4.60;1.40;;;26.90;58.40;;;;;;4850035;29;20133;-83
2023/10/04 11:32:28;;;;;;;5.46;1.94;;;26.60;58.40;;;;;;4512357;29;10000852;-84
2023/10/04 11:34:55;;;;;;;5.80;1.50;;;26.30;58.50;;;;;;4847832;29;20563;-84
2023/10/04 11:37:26;;;;;;;4.10;1.27;;;26.20;65.40;;;;;;4849688;29;20060;-82
2023/10/04 11:39:54;;;;;;;5.82;2.13;;;26.30;60.50;;;;;;4850479;29;20076;-89
2023/10/04 11:42:22;;;;;;;3.78;1.48;;;26.90;67.10;;;;;;4846980;29;20061;-85
2023/10/04 11:44:48;;;;;;;2.90;0.93;;;27.10;57.90;;;;;;4848711;29;20036;-84
2023/10/04 11:47:15;;;;;;;3.58;0.63;;;27.40;63.40;;;;;;4850370;29;20030;-82
2023/10/04 11:49:55;;;;;;;4.57;0.90;;;27.60;57.80;;;;;;4848773;29;20061;-85
2023/10/04 11:52:21;;;;;;;3.10;0.70;;;27.40;56.80;;;;;;4839749;29;20556;-83
2023/10/04 11:54:47;;;;;;;4.70;1.13;;;27.40;56.40;;;;;;4838859;29;20114;-83
2023/10/04 11:57:39;;;;;;;1.65;0.50;;;27.50;56.60;;;;;;4842994;29;20036;-85
2023/10/04 12:00:19;;;;;;;4.45;0.70;;;27.00;58.20;;;;;;4843622;29;20045;-86
2023/10/04 12:02:45;;;;;;;1.52;0.60;;;26.90;55.90;;;;;;4839045;29;20116;-85
2023/10/04 12:05:12;;;;;;;4.13;0.85;;;26.80;58.30;;;;;;4843726;29;20029;-86
2023/10/04 12:07:37;;;;;;;4.55;0.88;;;26.10;59.10;;;;;;4843421;29;20029;-86
2023/10/04 12:10:03;;;;;;;2.63;0.70;;;25.40;58.00;;;;;;4845026;29;20522;-82
2023/10/04 12:12:31;;;;;;;4.13;0.90;;;24.40;60.80;;;;;;4849135;29;20091;-82
2023/10/04 12:14:57;;;;;;;6.97;1.77;;;23.20;61.70;;;;;;4844632;29;20071;-84
2023/10/04 12:17:24;;;;;;;7.13;1.90;;;22.70;69.30;;;;;;4841709;29;20496;-82
2023/10/04 12:19:50;;;;;;;6.70;1.60;;;22.40;71.40;;;;;;4841696;29;20041;-83
2023/10/04 12:22:16;;;;;;;5.03;1.02;;;22.60;73.10;;;;;;4852777;29;20033;-85
2023/10/04 12:24:44;;;;;;;5.80;1.35;;;23.10;79.70;;;;;;4846819;29;20116;-82
2023/10/04 12:27:14;;;;;;;3.90;1.08;;;23.60;78.50;;;;;;4862958;29;20085;-84
2023/10/04 12:29:40;;;;;;;3.38;1.55;;;23.60;71.80;;;;;;4848380;29;20574;-87
2023/10/04 12:32:09;;;;;;;6.13;1.45;;;23.30;67.60;;;;;;4850260;29;20061;-86
2023/10/04 12:34:35;;;;;;;3.40;1.02;;;23.40;73.10;;;;;;4851717;29;20085;-84
2023/10/04 12:37:01;;;;;;;4.55;0.90;;;23.70;72.40;;;;;;4849480;29;20072;-83
2023/10/04 12:39:27;;;;;;;4.07;0.90;;;24.00;72.70;;;;;;4850046;29;20491;-81
2023/10/04 12:41:55;;;;;;;2.83;0.90;;;24.30;71.50;;;;;;4846929;29;20144;-84
2023/10/04 12:44:21;;;;;;;5.72;1.20;;;24.40;71.50;;;;;;4849607;29;20041;-84
2023/10/04 12:46:47;;;;;;;6.28;0.75;;;24.40;70.50;;;;;;4850482;29;20682;-83
2023/10/04 12:49:15;;;;;;;2.38;0.77;;;24.40;68.70;;;;;;4850609;29;20033;-85
2023/10/04 12:51:40;;;;;;;5.57;0.88;;;24.30;72.40;;;;;;4846757;29;20030;-82